Time;durP1;ratioP1;P1;durP2;ratioP2;P2;SDS_P1;SDS_P2;PMS_P1;PMS_P2;Temp;Humidity;BMP_temperature;BMP_pressure;BME280_temperature;BME280_humidity;BME280_pressure;Samples;Min_cycle;Max_cycle;Signal;HPM_P1;HPM_P2
2021/03/17 00:00:29;;;;;;;10.30;2.38;;;3.50;80.70;;;;;;5049265;28;20016;-90
2021/03/17 00:02:55;;;;;;;8.00;2.00;;;3.40;79.80;;;;;;5052655;28;20032;-90
2021/03/17 00:05:26;;;;;;;14.27;2.38;;;3.40;81.10;;;;;;5039726;28;20035;-90
2021/03/17 00:07:55;;;;;;;7.30;2.00;;;3.40;80.70;;;;;;5049441;28;20036;-90
2021/03/17 00:10:22;;;;;;;6.13;1.88;;;3.40;80.60;;;;;;5058097;28;20060;-88
2021/03/17 00:13:01;;;;;;;6.68;1.77;;;3.40;80.90;;;;;;5068893;28;20082;-91
2021/03/17 00:15:36;;;;;;;7.07;1.38;;;3.40;81.60;;;;;;5043937;28;20032;-91
2021/03/17 00:18:20;;;;;;;7.00;2.05;;;3.40;80.70;;;;;;5043111;28;20554;-92
2021/03/17 00:20:48;;;;;;;11.73;2.20;;;3.40;81.20;;;;;;5065704;28;20009;-91
2021/03/17 00:23:22;;;;;;;8.20;2.05;;;3.40;81.10;;;;;;5058580;28;20029;-92
2021/03/17 00:25:48;;;;;;;12.70;2.13;;;3.40;81.50;;;;;;5045149;28;20036;-92
2021/03/17 00:28:17;;;;;;;5.82;1.50;;;3.40;81.70;;;;;;5047129;28;20039;-90
2021/03/17 00:30:47;;;;;;;8.95;1.70;;;3.40;81.30;;;;;;5047455;28;20025;-91
2021/03/17 00:33:14;;;;;;;8.95;2.10;;;3.40;82.10;;;;;;5041734;28;20032;-90
2021/03/17 00:35:44;;;;;;;6.47;1.50;;;3.40;81.90;;;;;;5063700;28;20028;-91
2021/03/17 00:38:10;;;;;;;7.40;1.70;;;3.40;82.10;;;;;;5042483;28;20028;-90
2021/03/17 00:40:37;;;;;;;8.75;1.83;;;3.30;81.60;;;;;;5037350;28;20025;-90
2021/03/17 00:43:03;;;;;;;10.57;1.77;;;3.30;82.50;;;;;;5053602;28;20029;-90
2021/03/17 00:45:29;;;;;;;9.25;2.17;;;3.30;82.20;;;;;;5041466;28;20024;-90
2021/03/17 00:47:55;;;;;;;8.82;1.88;;;3.20;82.00;;;;;;5039878;28;20504;-90
2021/03/17 00:50:25;;;;;;;12.73;2.47;;;3.20;82.30;;;;;;5041983;28;20033;-90
2021/03/17 00:52:56;;;;;;;10.30;1.70;;;3.20;82.60;;;;;;5043135;28;20032;-90
2021/03/17 00:55:25;;;;;;;8.15;1.80;;;3.20;82.80;;;;;;5033925;28;20032;-90
2021/03/17 00:57:51;;;;;;;11.68;2.00;;;3.20;82.40;;;;;;5040216;28;20040;-90
2021/03/17 01:00:18;;;;;;;13.88;2.50;;;3.20;82.30;;;;;;5040325;28;20025;-90
2021/03/17 01:02:49;;;;;;;7.50;1.95;;;3.20;82.80;;;;;;5040684;28;20024;-89
2021/03/17 01:05:22;;;;;;;6.15;1.95;;;3.20;82.60;;;;;;5038895;28;20056;-91
2021/03/17 01:07:50;;;;;;;7.43;1.77;;;3.20;82.80;;;;;;5042497;28;20033;-92
2021/03/17 01:10:41;;;;;;;9.93;2.15;;;3.20;82.90;;;;;;5045604;28;20032;-91
2021/03/17 01:13:07;;;;;;;;;;;3.20;83.20;;;;;;5043327;28;20504;-92
2021/03/17 01:15:33;;;;;;;8.25;1.90;;;3.20;82.40;;;;;;5044732;28;19912;-91
2021/03/17 01:18:05;;;;;;;4.47;1.58;;;3.20;83.20;;;;;;5044148;28;20044;-91
2021/03/17 01:20:32;;;;;;;8.00;1.77;;;3.20;82.70;;;;;;5043327;28;20019;-92
2021/03/17 01:23:06;;;;;;;8.57;1.98;;;3.10;82.60;;;;;;5041243;28;20116;-92
2021/03/17 01:25:41;;;;;;;6.97;1.88;;;3.10;83.00;;;;;;5041770;28;20082;-92
2021/03/17 01:28:11;;;;;;;8.63;1.90;;;3.10;83.20;;;;;;5055769;28;20029;-92
2021/03/17 01:30:38;;;;;;;9.73;1.60;;;3.10;84.40;;;;;;5041525;28;20933;-92
2021/03/17 01:33:05;;;;;;;6.45;1.63;;;3.10;83.50;;;;;;5042599;28;20040;-92
2021/03/17 01:35:32;;;;;;;5.00;1.42;;;3.10;83.80;;;;;;5057322;28;20032;-92
2021/03/17 01:38:01;;;;;;;11.07;2.20;;;3.10;83.50;;;;;;5052225;28;20096;-91
2021/03/17 01:40:30;;;;;;;9.60;1.80;;;3.10;83.50;;;;;;5037701;28;20091;-92
2021/03/17 01:42:58;;;;;;;9.05;1.80;;;3.10;83.60;;;;;;5041753;28;20060;-92
2021/03/17 01:45:44;;;;;;;12.95;2.00;;;3.10;83.40;;;;;;5042535;28;20050;-92
2021/03/17 01:48:15;;;;;;;8.43;2.80;;;3.10;83.60;;;;;;5056058;28;20028;-92
2021/03/17 01:50:56;;;;;;;8.02;1.80;;;3.00;83.70;;;;;;5044484;28;20028;-92
2021/03/17 01:53:33;;;;;;;7.97;1.65;;;3.00;84.20;;;;;;5057935;28;20013;-92
2021/03/17 01:56:03;;;;;;;12.80;2.70;;;3.10;84.90;;;;;;5072067;28;20055;-92
2021/03/17 01:58:30;;;;;;;7.75;2.97;;;3.00;84.20;;;;;;5050086;28;20027;-91
2021/03/17 02:00:56;;;;;;;7.32;1.88;;;3.00;84.70;;;;;;5075186;28;20037;-90
2021/03/17 02:03:26;;;;;;;8.27;1.85;;;3.00;84.40;;;;;;5048558;28;20024;-91
2021/03/17 02:05:52;;;;;;;7.32;2.20;;;3.00;84.50;;;;;;5037682;28;20024;-90
2021/03/17 02:08:38;;;;;;;8.40;2.20;;;3.00;85.00;;;;;;5042542;28;20066;-90
2021/03/17 02:11:07;;;;;;;10.73;1.63;;;3.00;85.10;;;;;;5043425;28;20027;-89
2021/03/17 02:14:01;;;;;;;5.72;1.75;;;3.00;85.00;;;;;;5057809;28;20025;-91
2021/03/17 02:16:39;;;;;;;11.10;1.92;;;3.00;84.20;;;;;;5081030;28;20052;-91
2021/03/17 02:19:27;;;;;;;11.55;1.92;;;2.90;85.20;;;;;;5061103;28;20040;-91
2021/03/17 02:22:27;;;;;;;6.90;1.80;;;2.90;84.50;;;;;;5044133;28;20053;-90
2021/03/17 02:25:17;;;;;;;9.95;2.05;;;2.90;84.50;;;;;;5069290;28;20024;-91
2021/03/17 02:27:55;;;;;;;4.80;1.40;;;2.90;84.70;;;;;;5059907;28;20036;-91
2021/03/17 02:30:51;;;;;;;7.35;1.60;;;2.90;84.40;;;;;;5044966;28;20029;-90
2021/03/17 02:33:56;;;;;;;9.50;1.65;;;2.90;84.50;;;;;;5058014;28;20037;-90
2021/03/17 02:36:43;;;;;;;5.38;1.30;;;2.90;84.50;;;;;;5053819;28;20020;-92
2021/03/17 02:39:22;;;;;;;7.05;1.90;;;2.90;84.70;;;;;;5060782;28;20029;-91
2021/03/17 02:41:57;;;;;;;9.00;1.90;;;2.90;85.00;;;;;;5067636;28;20020;-91
2021/03/17 02:44:31;;;;;;;9.95;1.60;;;2.90;85.40;;;;;;5055620;28;20041;-91
2021/03/17 02:47:02;;;;;;;6.70;1.55;;;2.90;84.80;;;;;;5037914;28;20040;-91
2021/03/17 02:49:34;;;;;;;6.43;1.40;;;2.80;84.90;;;;;;5040440;28;20095;-91
2021/03/17 02:52:05;;;;;;;5.13;1.10;;;2.80;85.10;;;;;;5043113;28;20527;-91
2021/03/17 02:54:33;;;;;;;11.40;1.90;;;2.80;84.90;;;;;;5040166;28;20060;-91
2021/03/17 02:57:22;;;;;;;4.60;1.33;;;2.80;85.80;;;;;;5041490;28;20033;-91
2021/03/17 02:59:53;;;;;;;9.73;1.90;;;2.70;86.40;;;;;;5059186;28;20025;-90
2021/03/17 03:02:32;;;;;;;7.20;2.00;;;2.70;86.40;;;;;;5045057;28;20021;-92
2021/03/17 03:04:59;;;;;;;3.97;1.38;;;2.70;86.00;;;;;;5038004;28;20045;-91
2021/03/17 03:07:30;;;;;;;9.05;1.70;;;2.70;85.90;;;;;;5041974;28;20035;-92
2021/03/17 03:10:05;;;;;;;8.75;2.25;;;2.70;86.30;;;;;;5046683;28;20060;-92
2021/03/17 03:12:32;;;;;;;10.25;2.17;;;2.70;86.10;;;;;;5045372;28;20029;-91
2021/03/17 03:15:01;;;;;;;9.45;1.50;;;2.70;85.70;;;;;;5042916;28;20063;-90
2021/03/17 03:17:28;;;;;;;7.15;1.90;;;2.70;85.80;;;;;;5043612;28;20033;-91
2021/03/17 03:19:58;;;;;;;6.03;1.58;;;2.60;85.80;;;;;;5055464;28;20024;-90
2021/03/17 03:22:28;;;;;;;8.63;1.65;;;2.60;86.10;;;;;;5078271;28;20047;-90
2021/03/17 03:25:06;;;;;;;9.85;1.85;;;2.60;86.10;;;;;;5061721;28;20024;-91
2021/03/17 03:27:39;;;;;;;6.13;1.67;;;2.60;86.40;;;;;;5057068;28;20039;-91
2021/03/17 03:30:17;;;;;;;5.50;1.35;;;2.60;86.30;;;;;;5040819;28;20032;-90
2021/03/17 03:32:46;;;;;;;10.70;1.58;;;2.70;86.40;;;;;;5041613;28;20042;-91
2021/03/17 03:35:14;;;;;;;9.20;1.70;;;2.60;86.30;;;;;;5038397;28;20075;-91
2021/03/17 03:37:40;;;;;;;8.63;1.50;;;2.60;86.60;;;;;;5041177;28;20024;-91
2021/03/17 03:40:12;;;;;;;11.38;2.58;;;2.60;86.30;;;;;;5043880;28;20291;-91
2021/03/17 03:42:39;;;;;;;7.70;1.60;;;2.60;86.40;;;;;;5060907;28;20028;-91
2021/03/17 03:45:07;;;;;;;7.60;1.40;;;2.60;86.80;;;;;;5049102;28;20025;-91
2021/03/17 03:47:33;;;;;;;10.48;1.27;;;2.60;86.70;;;;;;5058626;28;20103;-91
2021/03/17 03:50:00;;;;;;;10.23;2.85;;;2.60;86.60;;;;;;5047429;28;20028;-90
2021/03/17 03:52:39;;;;;;;7.00;2.00;;;2.60;86.70;;;;;;5061082;28;20017;-91
2021/03/17 03:55:16;;;;;;;8.10;2.05;;;2.60;86.90;;;;;;5054968;28;20053;-92
2021/03/17 03:57:47;;;;;;;6.55;1.27;;;2.60;86.60;;;;;;5058951;28;20038;-91
2021/03/17 04:00:20;;;;;;;4.20;1.30;;;2.60;86.70;;;;;;5043727;28;20024;-92
2021/03/17 04:02:49;;;;;;;10.85;1.65;;;2.60;87.00;;;;;;5059826;28;20050;-91
2021/03/17 04:05:29;;;;;;;9.52;1.80;;;2.60;86.80;;;;;;5047663;28;20032;-91
2021/03/17 04:07:59;;;;;;;5.82;1.80;;;2.70;86.90;;;;;;5051733;28;20362;-91
2021/03/17 04:10:26;;;;;;;9.88;1.60;;;2.60;88.10;;;;;;5038609;28;20024;-91
2021/03/17 04:12:55;;;;;;;6.65;1.60;;;2.60;87.90;;;;;;5037249;28;20028;-92
2021/03/17 04:15:23;;;;;;;13.15;1.90;;;2.60;87.00;;;;;;5045054;28;20032;-91
2021/03/17 04:18:00;;;;;;;6.60;1.65;;;2.60;86.90;;;;;;5055234;28;20060;-92
2021/03/17 04:20:39;;;;;;;8.25;1.60;;;2.60;87.10;;;;;;5058037;28;20367;-92
2021/03/17 04:23:13;;;;;;;6.30;1.92;;;2.60;87.20;;;;;;5039364;28;20023;-91
2021/03/17 04:25:44;;;;;;;13.70;2.10;;;2.60;87.20;;;;;;5059806;28;20050;-92
2021/03/17 04:28:16;;;;;;;5.68;1.55;;;2.60;87.20;;;;;;5043442;28;20031;-92
2021/03/17 04:30:46;;;;;;;6.22;1.58;;;2.60;87.10;;;;;;5045467;28;20028;-92
2021/03/17 04:33:14;;;;;;;5.50;1.40;;;2.60;87.60;;;;;;5058332;28;20092;-91
2021/03/17 04:35:45;;;;;;;8.38;1.80;;;2.60;87.90;;;;;;5032242;28;20035;-90
2021/03/17 04:38:21;;;;;;;9.05;2.03;;;2.50;87.40;;;;;;5040029;28;20024;-91
2021/03/17 04:40:47;;;;;;;6.95;2.00;;;2.50;88.10;;;;;;5039983;28;20028;-91
2021/03/17 04:43:31;;;;;;;10.25;2.10;;;2.50;87.30;;;;;;5051017;28;20012;-91
2021/03/17 04:46:01;;;;;;;15.05;1.92;;;2.50;88.00;;;;;;5060303;28;20044;-92
2021/03/17 04:48:31;;;;;;;9.10;1.80;;;2.50;87.60;;;;;;5064132;28;20028;-91
2021/03/17 04:50:58;;;;;;;14.57;2.28;;;2.50;87.60;;;;;;5040521;28;20040;-91
2021/03/17 04:53:24;;;;;;;8.68;2.13;;;2.50;87.80;;;;;;5049577;28;20454;-92
2021/03/17 04:55:50;;;;;;;8.27;2.08;;;2.50;87.70;;;;;;5040702;28;20044;-92
2021/03/17 04:58:21;;;;;;;9.07;2.03;;;2.50;87.70;;;;;;5040218;28;20103;-91
2021/03/17 05:00:52;;;;;;;5.55;1.60;;;2.50;88.10;;;;;;5058000;28;20028;-91
2021/03/17 05:03:27;;;;;;;8.05;1.80;;;2.40;88.20;;;;;;5058007;28;20040;-91
2021/03/17 05:06:01;;;;;;;8.13;2.45;;;2.40;87.50;;;;;;5041751;28;20458;-91
2021/03/17 05:08:28;;;;;;;;;;;2.40;87.80;;;;;;5050015;28;20021;-89
2021/03/17 05:10:55;;;;;;;9.95;1.77;;;2.40;88.10;;;;;;5051411;28;19916;-90
2021/03/17 05:13:21;;;;;;;12.98;1.90;;;2.40;88.10;;;;;;5034287;28;20024;-90
2021/03/17 05:15:50;;;;;;;7.03;1.42;;;2.40;87.80;;;;;;5034127;28;20033;-90
2021/03/17 05:18:18;;;;;;;6.93;1.70;;;2.40;88.20;;;;;;5035431;28;20025;-90
2021/03/17 05:20:52;;;;;;;6.38;2.53;;;2.40;88.00;;;;;;5039965;28;20018;-90
2021/03/17 05:23:31;;;;;;;8.55;1.80;;;2.50;88.50;;;;;;5038485;28;20032;-91
2021/03/17 05:25:58;;;;;;;9.30;1.75;;;2.40;88.40;;;;;;5042758;28;20035;-92
2021/03/17 05:28:25;;;;;;;8.40;2.67;;;2.40;88.00;;;;;;5038603;28;20019;-92
2021/03/17 05:30:56;;;;;;;4.47;1.80;;;2.40;88.30;;;;;;5039153;28;20024;-92
2021/03/17 05:33:25;;;;;;;12.73;2.20;;;2.40;88.00;;;;;;5037401;28;20025;-90
2021/03/17 05:35:54;;;;;;;12.02;2.47;;;2.40;87.90;;;;;;5038612;28;20037;-92
2021/03/17 05:38:20;;;;;;;12.95;1.75;;;2.40;88.30;;;;;;5051797;28;20021;-90
2021/03/17 05:40:46;;;;;;;9.30;2.22;;;2.40;88.60;;;;;;5058155;28;20035;-90
2021/03/17 05:43:15;;;;;;;13.07;2.42;;;2.40;88.10;;;;;;5057575;28;20055;-90
2021/03/17 05:45:44;;;;;;;12.45;2.10;;;2.30;88.20;;;;;;5049101;28;20108;-90
2021/03/17 05:48:10;;;;;;;7.18;2.00;;;2.30;88.10;;;;;;5056702;28;20027;-89
2021/03/17 05:50:37;;;;;;;6.68;1.98;;;2.30;88.40;;;;;;5059649;28;20028;-92
2021/03/17 05:53:10;;;;;;;9.88;2.30;;;2.30;88.20;;;;;;5055029;28;20056;-90
2021/03/17 05:55:38;;;;;;;8.93;2.30;;;2.30;89.00;;;;;;5040598;28;20033;-91
2021/03/17 05:58:12;;;;;;;12.32;3.33;;;2.30;88.60;;;;;;5039234;28;20481;-92
2021/03/17 06:00:41;;;;;;;9.50;2.15;;;2.30;88.50;;;;;;5059947;28;20025;-90
2021/03/17 06:03:17;;;;;;;14.60;3.33;;;2.30;89.00;;;;;;5058844;28;20028;-92
2021/03/17 06:05:45;;;;;;;15.95;3.50;;;2.20;89.10;;;;;;5063620;23;20043;-74
2021/03/17 06:08:19;;;;;;;11.32;3.40;;;2.20;89.60;;;;;;5051253;28;20040;-73
2021/03/17 06:10:46;;;;;;;9.77;3.08;;;2.30;89.30;;;;;;5057199;28;20031;-73
2021/03/17 06:13:14;;;;;;;11.32;3.33;;;2.30;89.20;;;;;;5050324;28;20099;-73
2021/03/17 06:15:49;;;;;;;10.88;2.67;;;2.30;88.70;;;;;;5035711;28;20025;-74
2021/03/17 06:18:20;;;;;;;7.53;2.17;;;2.30;88.90;;;;;;5049160;28;20028;-77
2021/03/17 06:20:47;;;;;;;;;;;2.30;89.30;;;;;;5052696;28;20470;-74
2021/03/17 06:23:15;;;;;;;7.05;2.15;;;2.30;88.80;;;;;;5050343;28;19908;-74
2021/03/17 06:25:44;;;;;;;13.30;2.58;;;2.30;88.70;;;;;;5035136;28;20061;-75
2021/03/17 06:28:14;;;;;;;8.27;2.28;;;2.30;88.80;;;;;;5053273;28;20052;-76
2021/03/17 06:30:40;;;;;;;10.02;2.22;;;2.30;88.70;;;;;;5050700;28;20025;-74
2021/03/17 06:33:06;;;;;;;13.55;2.45;;;2.30;89.00;;;;;;5048263;28;20025;-73
2021/03/17 06:35:32;;;;;;;7.00;2.08;;;2.40;88.80;;;;;;5050343;28;20036;-75
2021/03/17 06:38:00;;;;;;;7.70;2.20;;;2.40;89.00;;;;;;5050862;28;20037;-74
2021/03/17 06:40:40;;;;;;;11.63;2.40;;;2.40;88.90;;;;;;5052105;28;20045;-74
2021/03/17 06:43:10;;;;;;;6.82;2.30;;;2.40;88.80;;;;;;5047981;28;20021;-73
2021/03/17 06:45:46;;;;;;;11.32;2.75;;;2.40;88.90;;;;;;5050788;28;20040;-73
2021/03/17 06:48:22;;;;;;;8.27;2.30;;;2.40;88.90;;;;;;5051897;28;20033;-73
2021/03/17 06:51:17;;;;;;;10.85;2.83;;;2.50;89.10;;;;;;5041439;28;20034;-73
2021/03/17 06:53:51;;;;;;;6.35;2.50;;;2.50;88.90;;;;;;5050418;28;20032;-73
2021/03/17 06:56:25;;;;;;;10.30;2.40;;;2.50;88.90;;;;;;5050946;28;20158;-75
2021/03/17 06:58:53;;;;;;;11.00;3.40;;;2.50;89.20;;;;;;5036652;28;20028;-74
2021/03/17 07:01:34;;;;;;;11.68;2.75;;;2.50;89.00;;;;;;5032176;28;20469;-75
2021/03/17 07:04:08;;;;;;;12.85;3.50;;;2.50;89.20;;;;;;5050718;28;20028;-75
2021/03/17 07:06:35;;;;;;;13.77;3.03;;;2.60;89.40;;;;;;5050654;28;20048;-73
2021/03/17 07:09:27;;;;;;;13.63;3.00;;;2.60;89.40;;;;;;5050656;28;20490;-73
2021/03/17 07:12:04;;;;;;;10.00;3.40;;;2.70;89.50;;;;;;5049645;28;20039;-73
2021/03/17 07:14:37;;;;;;;9.85;3.25;;;2.70;89.60;;;;;;5052096;28;20029;-73
2021/03/17 07:17:03;;;;;;;11.23;3.30;;;2.70;89.60;;;;;;5026520;28;20017;-73
2021/03/17 07:19:37;;;;;;;12.73;3.15;;;2.70;89.80;;;;;;5048398;28;20021;-73
2021/03/17 07:22:13;;;;;;;10.50;3.50;;;2.70;89.80;;;;;;5049126;28;20025;-71
2021/03/17 07:24:59;;;;;;;12.32;3.85;;;2.80;89.90;;;;;;5048465;28;20108;-71
2021/03/17 07:27:27;;;;;;;13.50;4.03;;;2.80;89.70;;;;;;5051281;28;20052;-71
2021/03/17 07:30:02;;;;;;;14.98;4.35;;;2.80;90.10;;;;;;5051265;28;20040;-72
2021/03/17 07:32:53;;;;;;;13.82;4.53;;;2.90;90.20;;;;;;5050596;28;20394;-72
2021/03/17 07:35:29;;;;;;;19.58;4.45;;;2.90;90.10;;;;;;5048517;28;20036;-73
2021/03/17 07:38:05;;;;;;;12.52;4.75;;;3.00;89.90;;;;;;5051672;28;20025;-72
2021/03/17 07:40:31;;;;;;;12.18;4.35;;;3.10;90.00;;;;;;5036297;28;20025;-73
2021/03/17 07:43:00;;;;;;;9.50;4.30;;;3.10;90.10;;;;;;5053640;28;20032;-74
2021/03/17 07:45:28;;;;;;;8.65;4.05;;;3.10;90.10;;;;;;5033209;28;20049;-74
2021/03/17 07:47:55;;;;;;;16.02;5.10;;;3.20;90.10;;;;;;5049289;28;20036;-74
2021/03/17 07:50:22;;;;;;;12.95;4.80;;;3.20;90.00;;;;;;5029265;28;20021;-74
2021/03/17 07:52:51;;;;;;;9.52;4.07;;;3.30;90.00;;;;;;5043598;28;20037;-74
2021/03/17 07:55:21;;;;;;;12.10;5.30;;;3.30;90.30;;;;;;5050651;28;20033;-75
2021/03/17 07:57:47;;;;;;;13.80;5.00;;;3.40;90.00;;;;;;5028447;28;20025;-74
2021/03/17 08:00:14;;;;;;;17.10;5.60;;;3.40;90.00;;;;;;5047584;28;20107;-74
2021/03/17 08:02:40;;;;;;;11.65;5.45;;;3.40;90.10;;;;;;5050513;28;20115;-74
2021/03/17 08:05:07;;;;;;;13.05;5.25;;;3.50;90.10;;;;;;5045807;28;20478;-74
2021/03/17 08:07:35;;;;;;;15.80;6.75;;;3.50;90.10;;;;;;5049555;28;20031;-74
2021/03/17 08:10:02;;;;;;;13.07;4.70;;;3.50;90.10;;;;;;5045403;28;20494;-74
2021/03/17 08:12:28;;;;;;;15.25;6.13;;;3.60;90.10;;;;;;5047466;28;20033;-74
2021/03/17 08:14:54;;;;;;;14.15;6.03;;;3.60;90.00;;;;;;5050253;28;20040;-74
2021/03/17 08:17:35;;;;;;;14.52;5.10;;;3.60;90.10;;;;;;5050958;28;20119;-74
2021/03/17 08:20:15;;;;;;;10.95;4.72;;;3.60;90.00;;;;;;5049072;28;20032;-74
2021/03/17 08:22:41;;;;;;;15.15;5.45;;;3.60;89.90;;;;;;5048505;28;20021;-74
2021/03/17 08:25:09;;;;;;;10.90;4.53;;;3.70;90.00;;;;;;5051177;28;20044;-74
2021/03/17 08:27:35;;;;;;;16.55;6.00;;;3.70;89.80;;;;;;5052285;28;20087;-74
2021/03/17 08:30:12;;;;;;;11.75;4.55;;;3.80;89.40;;;;;;5051451;28;20032;-74
2021/03/17 08:32:54;;;;;;;13.80;5.15;;;3.70;89.40;;;;;;5054485;28;20400;-74
2021/03/17 08:35:20;;;;;;;;;;;3.70;89.60;;;;;;5049978;28;20459;-72
2021/03/17 08:37:50;;;;;;;14.48;5.57;;;3.80;89.60;;;;;;5051121;28;19947;-75
2021/03/17 08:40:28;;;;;;;11.52;4.97;;;3.80;89.70;;;;;;5047403;28;20099;-74
2021/03/17 08:42:54;;;;;;;15.45;4.78;;;3.70;89.80;;;;;;5050203;28;20060;-73
2021/03/17 08:45:22;;;;;;;15.18;5.90;;;3.80;90.00;;;;;;5033324;28;20506;-74
2021/03/17 08:47:49;;;;;;;17.40;5.60;;;3.80;90.00;;;;;;5052568;28;20112;-74
2021/03/17 08:50:15;;;;;;;14.23;5.72;;;3.80;89.80;;;;;;5052042;28;20021;-74
2021/03/17 08:52:48;;;;;;;11.93;5.60;;;3.90;89.90;;;;;;5051367;28;20055;-74
2021/03/17 08:55:18;;;;;;;12.30;5.35;;;3.90;90.00;;;;;;5032505;28;20025;-74
2021/03/17 08:57:51;;;;;;;11.85;5.32;;;3.90;90.10;;;;;;5031958;28;20021;-73
2021/03/17 09:00:54;;;;;;;15.32;5.20;;;4.00;90.00;;;;;;5026859;28;20026;-74
2021/03/17 09:03:32;;;;;;;14.55;5.40;;;4.10;90.00;;;;;;5032470;28;20382;-74
2021/03/17 09:06:05;;;;;;;11.38;5.90;;;4.20;89.50;;;;;;5032674;28;20036;-74
2021/03/17 09:08:55;;;;;;;13.57;5.63;;;4.20;89.70;;;;;;5046482;28;20502;-74
2021/03/17 09:11:30;;;;;;;15.77;5.45;;;4.20;89.60;;;;;;5049964;28;20033;-73
2021/03/17 09:14:07;;;;;;;11.73;4.88;;;4.30;89.10;;;;;;5044882;28;20052;-73
2021/03/17 09:16:53;;;;;;;15.90;5.45;;;4.30;88.60;;;;;;5048497;28;20021;-73
2021/03/17 09:19:19;;;;;;;16.45;5.70;;;4.30;88.70;;;;;;5042075;28;20035;-74
2021/03/17 09:21:46;;;;;;;13.88;5.55;;;4.30;88.80;;;;;;5049034;28;20087;-73
2021/03/17 09:24:33;;;;;;;14.85;5.85;;;4.40;88.60;;;;;;5076260;22;20029;-68
2021/03/17 09:27:08;;;;;;;13.18;6.15;;;4.40;88.60;;;;;;5045395;28;20029;-68
2021/03/17 09:29:36;;;;;;;21.02;6.55;;;4.30;88.80;;;;;;5049266;28;20562;-68
2021/03/17 09:32:03;;;;;;;13.70;6.15;;;4.30;88.80;;;;;;5046946;28;20025;-68
2021/03/17 09:34:35;;;;;;;16.00;6.38;;;4.30;88.70;;;;;;5046869;28;20049;-68
2021/03/17 09:37:09;;;;;;;16.17;5.65;;;4.30;88.70;;;;;;5045670;28;20305;-68
2021/03/17 09:39:36;;;;;;;17.48;5.97;;;4.30;88.80;;;;;;5029582;28;20078;-68
2021/03/17 09:42:02;;;;;;;14.65;5.90;;;4.30;89.40;;;;;;5048252;28;20501;-68
2021/03/17 09:44:29;;;;;;;11.55;5.70;;;4.30;89.30;;;;;;5051740;28;20172;-68
2021/03/17 09:46:55;;;;;;;14.80;6.28;;;4.40;89.60;;;;;;5046113;28;20037;-68
2021/03/17 09:49:26;;;;;;;13.02;5.60;;;4.40;89.40;;;;;;5048448;28;20063;-68
2021/03/17 09:51:56;;;;;;;16.50;5.73;;;4.50;89.60;;;;;;5045824;28;20053;-68
2021/03/17 09:54:25;;;;;;;12.35;5.80;;;4.60;89.40;;;;;;5047102;28;20494;-68
2021/03/17 09:56:53;;;;;;;14.00;6.78;;;4.70;89.50;;;;;;5043845;28;20060;-68
2021/03/17 09:59:26;;;;;;;10.85;5.35;;;4.80;89.30;;;;;;5047852;28;20044;-68
2021/03/17 10:01:53;;;;;;;11.75;5.50;;;4.90;88.90;;;;;;5047696;28;20048;-68
2021/03/17 10:04:30;;;;;;;13.02;6.45;;;5.10;88.30;;;;;;5047881;28;20522;-68
2021/03/17 10:06:57;;;;;;;14.52;6.53;;;5.30;87.20;;;;;;5047358;28;20036;-68
2021/03/17 10:09:28;;;;;;;12.13;5.57;;;5.40;86.50;;;;;;5037121;28;20021;-69
2021/03/17 10:12:00;;;;;;;12.38;5.40;;;5.50;85.70;;;;;;5046704;28;21458;-68
2021/03/17 10:14:26;;;;;;;16.20;5.78;;;5.60;86.00;;;;;;5043180;28;20120;-69
2021/03/17 10:16:54;;;;;;;13.85;5.32;;;5.70;85.70;;;;;;5025296;28;20120;-69
2021/03/17 10:19:20;;;;;;;10.38;4.72;;;5.70;85.20;;;;;;5047169;28;20079;-69
2021/03/17 10:21:52;;;;;;;16.08;5.40;;;5.70;85.20;;;;;;5047143;28;20437;-68
2021/03/17 10:24:30;;;;;;;11.85;5.38;;;5.70;85.20;;;;;;5048751;28;20036;-69
2021/03/17 10:26:56;;;;;;;11.00;4.90;;;5.70;85.10;;;;;;5046298;28;20099;-69
2021/03/17 10:29:22;;;;;;;12.32;5.45;;;5.80;85.20;;;;;;5046057;28;20041;-69
2021/03/17 10:31:54;;;;;;;12.57;5.47;;;5.80;85.60;;;;;;5030147;28;20057;-68
2021/03/17 10:34:21;;;;;;;14.93;5.68;;;5.80;83.90;;;;;;5047497;28;20029;-69
2021/03/17 10:36:54;;;;;;;10.45;5.47;;;5.80;84.00;;;;;;5047806;28;20466;-69
2021/03/17 10:39:34;;;;;;;14.48;6.30;;;5.90;84.20;;;;;;5049891;28;20025;-69
2021/03/17 10:42:02;;;;;;;13.18;5.60;;;5.90;84.50;;;;;;5044009;28;20049;-69
2021/03/17 10:44:30;;;;;;;12.15;5.43;;;6.00;85.10;;;;;;5046916;28;20024;-69
2021/03/17 10:46:59;;;;;;;12.48;5.82;;;6.20;83.00;;;;;;5053387;28;20399;-68
2021/03/17 10:49:24;;;;;;;10.80;5.13;;;6.30;82.40;;;;;;5051649;28;20033;-68
2021/03/17 10:51:51;;;;;;;11.10;5.40;;;6.30;82.50;;;;;;5047854;28;20045;-68
2021/03/17 10:54:30;;;;;;;11.98;4.88;;;6.40;82.10;;;;;;5043774;28;20077;-68
2021/03/17 10:56:57;;;;;;;18.20;5.38;;;6.40;82.30;;;;;;5040874;28;20021;-68
2021/03/17 10:59:34;;;;;;;15.40;5.25;;;6.50;82.10;;;;;;5049545;28;20029;-68
2021/03/17 11:02:14;;;;;;;14.80;5.60;;;6.50;82.20;;;;;;5046204;28;20041;-69
2021/03/17 11:05:03;;;;;;;10.23;5.18;;;6.60;82.30;;;;;;5051207;28;20036;-68
2021/03/17 11:07:49;;;;;;;12.80;5.63;;;6.60;83.40;;;;;;5048292;28;20490;-68
2021/03/17 11:10:42;;;;;;;15.45;5.97;;;6.80;82.20;;;;;;5045437;28;20047;-68
2021/03/17 11:13:16;;;;;;;13.65;4.75;;;7.20;84.70;;;;;;5049776;28;20025;-68
2021/03/17 11:15:57;;;;;;;7.53;3.60;;;8.10;83.70;;;;;;5049850;28;20027;-68
2021/03/17 11:18:31;;;;;;;10.90;4.28;;;9.60;79.10;;;;;;5049418;28;20033;-69
2021/03/17 11:21:09;;;;;;;11.07;4.38;;;10.70;73.50;;;;;;5041962;28;20559;-69
2021/03/17 11:23:38;;;;;;;9.45;4.10;;;11.70;69.60;;;;;;5049970;28;20542;-69
2021/03/17 11:26:06;;;;;;;8.82;4.10;;;12.20;69.60;;;;;;5047854;28;20104;-69
2021/03/17 11:28:38;;;;;;;10.55;4.10;;;12.80;61.90;;;;;;5048468;28;20021;-69
2021/03/17 11:31:07;;;;;;;7.28;3.78;;;13.10;63.20;;;;;;5050267;28;20063;-69
2021/03/17 11:33:33;;;;;;;10.07;5.00;;;14.10;59.80;;;;;;5048130;28;20534;-69
2021/03/17 11:36:00;;;;;;;11.20;4.20;;;14.10;57.00;;;;;;5045111;28;20120;-68
2021/03/17 11:38:26;;;;;;;9.90;4.78;;;14.20;57.90;;;;;;5048540;28;20063;-68
2021/03/17 11:40:53;;;;;;;7.60;4.43;;;14.20;57.70;;;;;;5049370;28;20096;-69
2021/03/17 11:43:22;;;;;;;8.35;3.78;;;13.70;56.90;;;;;;5048897;28;20040;-71
2021/03/17 11:45:50;;;;;;;8.90;4.25;;;13.50;59.00;;;;;;5049344;28;20071;-70
2021/03/17 11:48:16;;;;;;;6.85;3.83;;;13.60;58.10;;;;;;5050276;28;20036;-69
2021/03/17 11:50:46;;;;;;;7.32;4.13;;;13.30;59.10;;;;;;5045929;28;20033;-70
2021/03/17 11:53:13;;;;;;;7.93;4.30;;;12.80;59.10;;;;;;5047373;28;20413;-70
2021/03/17 11:55:39;;;;;;;10.93;4.72;;;12.40;60.50;;;;;;5049222;28;20525;-69
2021/03/17 11:58:04;;;;;;;9.55;3.83;;;12.00;60.80;;;;;;5051773;28;20140;-69
2021/03/17 12:00:31;;;;;;;9.15;4.15;;;11.40;63.30;;;;;;5028664;28;20029;-69
2021/03/17 12:02:57;;;;;;;9.95;3.90;;;10.90;64.20;;;;;;5050281;28;20027;-69
2021/03/17 12:05:23;;;;;;;9.25;3.47;;;10.60;64.40;;;;;;5048300;28;20046;-69
2021/03/17 12:07:50;;;;;;;9.57;3.97;;;10.50;65.70;;;;;;5051224;28;20036;-69
2021/03/17 12:10:16;;;;;;;7.35;4.07;;;10.50;63.50;;;;;;5044543;28;20025;-72
2021/03/17 12:12:43;;;;;;;8.43;3.90;;;10.40;64.50;;;;;;5030564;28;20033;-69
2021/03/17 12:15:18;;;;;;;8.95;4.30;;;10.10;65.80;;;;;;5047709;28;20033;-69
2021/03/17 12:17:44;;;;;;;7.43;3.97;;;9.90;66.60;;;;;;5047591;28;20150;-69
2021/03/17 12:20:11;;;;;;;11.60;4.40;;;9.90;65.00;;;;;;5032832;28;20446;-68
2021/03/17 12:22:37;;;;;;;9.07;3.83;;;9.70;65.80;;;;;;5047352;28;20033;-69
2021/03/17 12:25:04;;;;;;;7.63;3.20;;;9.50;67.00;;;;;;5044407;28;20063;-71
2021/03/17 12:27:32;;;;;;;7.78;3.80;;;9.40;66.50;;;;;;5046525;28;20043;-68
2021/03/17 12:30:01;;;;;;;6.93;3.45;;;9.20;66.20;;;;;;5049607;28;20138;-68
2021/03/17 12:32:27;;;;;;;8.07;3.25;;;9.20;64.10;;;;;;5046994;28;20036;-68
2021/03/17 12:34:53;;;;;;;5.50;3.10;;;9.00;63.00;;;;;;5049083;28;20029;-68
2021/03/17 12:37:19;;;;;;;6.63;2.65;;;8.80;62.50;;;;;;5044942;28;20036;-68
2021/03/17 12:39:45;;;;;;;7.10;2.60;;;8.60;62.50;;;;;;5046571;28;20025;-68
2021/03/17 12:42:10;;;;;;;5.60;3.40;;;8.40;63.10;;;;;;5041218;28;20036;-68
2021/03/17 12:44:37;;;;;;;6.50;3.00;;;8.20;64.10;;;;;;5048060;28;20032;-68
2021/03/17 12:47:05;;;;;;;5.70;2.60;;;8.10;64.20;;;;;;5045410;28;20513;-69
2021/03/17 12:49:31;;;;;;;4.28;2.28;;;8.10;64.10;;;;;;5049177;28;20052;-68
2021/03/17 12:51:57;;;;;;;4.32;2.63;;;8.00;65.20;;;;;;5048027;28;20482;-68
2021/03/17 12:54:23;;;;;;;5.55;2.80;;;7.90;65.90;;;;;;5046985;28;20028;-69
2021/03/17 12:56:48;;;;;;;6.28;3.20;;;7.90;65.50;;;;;;5048221;28;20033;-69
2021/03/17 12:59:15;;;;;;;6.57;3.13;;;8.00;64.70;;;;;;5045621;28;20433;-69
2021/03/17 13:01:43;;;;;;;6.85;2.83;;;8.10;64.10;;;;;;5047299;28;20104;-69
2021/03/17 13:04:09;;;;;;;7.68;2.50;;;8.10;64.50;;;;;;5049424;28;20116;-69
2021/03/17 13:06:36;;;;;;;4.90;2.50;;;8.10;60.70;;;;;;5046773;28;20031;-69
2021/03/17 13:09:06;;;;;;;4.07;2.00;;;8.10;61.30;;;;;;5045771;28;20500;-69
2021/03/17 13:11:34;;;;;;;4.50;2.53;;;8.30;61.30;;;;;;5045187;28;20041;-69
2021/03/17 13:14:00;;;;;;;5.40;2.50;;;8.30;60.10;;;;;;5045022;28;20025;-70